sensor_id;sensor_type;location;lat;lon;timestamp;temperature;humidity
21602;DHT22;10963;50.934;4.668;2022-09-23T00:01:20;12.30;99.90
21602;DHT22;10963;50.934;4.668;2022-09-23T00:03:47;12.20;99.90
21602;DHT22;10963;50.934;4.668;2022-09-23T00:06:22;12.30;99.90
21602;DHT22;10963;50.934;4.668;2022-09-23T00:08:50;12.30;99.90
21602;DHT22;10963;50.934;4.668;2022-09-23T00:11:23;12.20;99.90
21602;DHT22;10963;50.934;4.668;2022-09-23T00:13:54;12.10;99.90
21602;DHT22;10963;50.934;4.668;2022-09-23T00:16:26;12.10;99.90
21602;DHT22;10963;50.934;4.668;2022-09-23T00:18:55;12.00;99.90
21602;DHT22;10963;50.934;4.668;2022-09-23T00:21:21;11.90;99.90
21602;DHT22;10963;50.934;4.668;2022-09-23T00:23:49;12.00;99.90
21602;DHT22;10963;50.934;4.668;2022-09-23T00:26:16;11.90;99.90
21602;DHT22;10963;50.934;4.668;2022-09-23T00:28:48;11.80;99.90
21602;DHT22;10963;50.934;4.668;2022-09-23T00:31:22;11.90;99.90
21602;DHT22;10963;50.934;4.668;2022-09-23T00:33:55;11.90;99.90
21602;DHT22;10963;50.934;4.668;2022-09-23T00:36:22;11.80;99.90
21602;DHT22;10963;50.934;4.668;2022-09-23T00:38:48;11.80;99.90
21602;DHT22;10963;50.934;4.668;2022-09-23T00:41:14;11.80;99.90
21602;DHT22;10963;50.934;4.668;2022-09-23T00:43:51;11.80;99.90
21602;DHT22;10963;50.934;4.668;2022-09-23T00:46:37;11.70;99.90
21602;DHT22;10963;50.934;4.668;2022-09-23T00:49:14;11.60;99.90
21602;DHT22;10963;50.934;4.668;2022-09-23T00:51:53;11.60;99.90
21602;DHT22;10963;50.934;4.668;2022-09-23T00:54:21;11.60;99.90
21602;DHT22;10963;50.934;4.668;2022-09-23T00:56:51;11.60;99.90
21602;DHT22;10963;50.934;4.668;2022-09-23T00:59:20;11.50;99.90
21602;DHT22;10963;50.934;4.668;2022-09-23T01:01:50;11.50;99.90
21602;DHT22;10963;50.934;4.668;2022-09-23T01:04:21;11.50;99.90
21602;DHT22;10963;50.934;4.668;2022-09-23T01:06:50;11.40;99.90
21602;DHT22;10963;50.934;4.668;2022-09-23T01:09:18;11.30;99.90
21602;DHT22;10963;50.934;4.668;2022-09-23T01:31:42;11.10;99.90
21602;DHT22;10963;50.934;4.668;2022-09-23T01:34:14;11.00;99.90
21602;DHT22;10963;50.934;4.668;2022-09-23T01:36:51;11.10;99.90
21602;DHT22;10963;50.934;4.668;2022-09-23T01:42:29;11.10;99.90
21602;DHT22;10963;50.934;4.668;2022-09-23T01:45:10;11.10;99.90
21602;DHT22;10963;50.934;4.668;2022-09-23T01:47:50;11.00;99.90
21602;DHT22;10963;50.934;4.668;2022-09-23T01:50:27;11.10;99.90
21602;DHT22;10963;50.934;4.668;2022-09-23T01:56:50;11.20;99.90
21602;DHT22;10963;50.934;4.668;2022-09-23T02:01:33;11.10;99.90
21602;DHT22;10963;50.934;4.668;2022-09-23T02:04:27;11.10;99.90
21602;DHT22;10963;50.934;4.668;2022-09-23T02:07:04;11.10;99.90
21602;DHT22;10963;50.934;4.668;2022-09-23T02:09:42;11.00;99.90
21602;DHT22;10963;50.934;4.668;2022-09-23T02:12:15;11.00;99.90
21602;DHT22;10963;50.934;4.668;2022-09-23T02:14:48;11.00;99.90
21602;DHT22;10963;50.934;4.668;2022-09-23T02:17:22;10.90;99.90
21602;DHT22;10963;50.934;4.668;2022-09-23T02:19:59;11.00;99.90
21602;DHT22;10963;50.934;4.668;2022-09-23T02:22:31;10.90;99.90
21602;DHT22;10963;50.934;4.668;2022-09-23T02:25:02;10.90;99.90
21602;DHT22;10963;50.934;4.668;2022-09-23T02:30:15;10.90;99.90
21602;DHT22;10963;50.934;4.668;2022-09-23T02:33:03;10.90;99.90
21602;DHT22;10963;50.934;4.668;2022-09-23T02:35:58;10.70;99.90
21602;DHT22;10963;50.934;4.668;2022-09-23T02:38:45;10.70;99.90
21602;DHT22;10963;50.934;4.668;2022-09-23T02:41:35;10.70;99.90
21602;DHT22;10963;50.934;4.668;2022-09-23T02:44:13;10.80;99.90
21602;DHT22;10963;50.934;4.668;2022-09-23T02:46:45;10.80;99.90
21602;DHT22;10963;50.934;4.668;2022-09-23T02:49:20;10.80;99.90
21602;DHT22;10963;50.934;4.668;2022-09-23T02:51:47;10.80;99.90
21602;DHT22;10963;50.934;4.668;2022-09-23T02:54:19;10.90;99.90
21602;DHT22;10963;50.934;4.668;2022-09-23T02:56:45;10.90;99.90
21602;DHT22;10963;50.934;4.668;2022-09-23T02:59:16;10.90;99.90
21602;DHT22;10963;50.934;4.668;2022-09-23T03:04:34;11.00;99.90
21602;DHT22;10963;50.934;4.668;2022-09-23T03:12:45;11.10;99.90
21602;DHT22;10963;50.934;4.668;2022-09-23T03:22:58;11.10;99.90
21602;DHT22;10963;50.934;4.668;2022-09-23T03:25:29;11.00;99.90
21602;DHT22;10963;50.934;4.668;2022-09-23T03:27:59;11.10;99.90
21602;DHT22;10963;50.934;4.668;2022-09-23T03:30:26;11.20;99.90
21602;DHT22;10963;50.934;4.668;2022-09-23T03:32:56;11.10;99.90
21602;DHT22;10963;50.934;4.668;2022-09-23T03:35:29;11.10;99.90
21602;DHT22;10963;50.934;4.668;2022-09-23T03:38:06;11.20;99.90
21602;DHT22;10963;50.934;4.668;2022-09-23T03:40:42;11.10;99.90
21602;DHT22;10963;50.934;4.668;2022-09-23T03:43:12;11.10;99.90
21602;DHT22;10963;50.934;4.668;2022-09-23T03:45:41;11.10;99.90
21602;DHT22;10963;50.934;4.668;2022-09-23T03:48:12;11.10;99.90
21602;DHT22;10963;50.934;4.668;2022-09-23T03:50:40;11.10;99.90
21602;DHT22;10963;50.934;4.668;2022-09-23T03:53:08;11.10;99.90
21602;DHT22;10963;50.934;4.668;2022-09-23T03:55:40;11.10;99.90
21602;DHT22;10963;50.934;4.668;2022-09-23T03:58:06;11.10;99.90
21602;DHT22;10963;50.934;4.668;2022-09-23T04:00:32;11.10;99.90
21602;DHT22;10963;50.934;4.668;2022-09-23T04:03:00;11.10;99.90
21602;DHT22;10963;50.934;4.668;2022-09-23T04:05:26;11.00;99.90
21602;DHT22;10963;50.934;4.668;2022-09-23T04:07:52;11.00;99.90
21602;DHT22;10963;50.934;4.668;2022-09-23T04:10:20;11.00;99.90
21602;DHT22;10963;50.934;4.668;2022-09-23T04:12:46;11.00;99.90
21602;DHT22;10963;50.934;4.668;2022-09-23T04:15:11;11.00;99.90
21602;DHT22;10963;50.934;4.668;2022-09-23T04:17:40;11.00;99.90
21602;DHT22;10963;50.934;4.668;2022-09-23T04:20:06;11.00;99.90
21602;DHT22;10963;50.934;4.668;2022-09-23T04:22:33;11.20;99.90
21602;DHT22;10963;50.934;4.668;2022-09-23T04:24:59;11.30;99.90
21602;DHT22;10963;50.934;4.668;2022-09-23T04:27:25;11.30;99.90
21602;DHT22;10963;50.934;4.668;2022-09-23T04:29:50;11.30;99.90
21602;DHT22;10963;50.934;4.668;2022-09-23T04:32:19;11.30;99.90
21602;DHT22;10963;50.934;4.668;2022-09-23T04:34:47;11.30;99.90
21602;DHT22;10963;50.934;4.668;2022-09-23T04:37:15;11.30;99.90
21602;DHT22;10963;50.934;4.668;2022-09-23T04:39:43;11.40;99.90
21602;DHT22;10963;50.934;4.668;2022-09-23T04:42:08;11.50;99.90
21602;DHT22;10963;50.934;4.668;2022-09-23T04:44:36;11.50;99.90
21602;DHT22;10963;50.934;4.668;2022-09-23T04:47:07;11.40;99.90
21602;DHT22;10963;50.934;4.668;2022-09-23T04:49:33;11.40;99.90
21602;DHT22;10963;50.934;4.668;2022-09-23T04:51:59;11.60;99.90
21602;DHT22;10963;50.934;4.668;2022-09-23T04:54:30;11.70;99.90
21602;DHT22;10963;50.934;4.668;2022-09-23T04:56:55;11.70;99.90
21602;DHT22;10963;50.934;4.668;2022-09-23T04:59:23;11.60;99.90
21602;DHT22;10963;50.934;4.668;2022-09-23T05:01:52;11.60;99.90
21602;DHT22;10963;50.934;4.668;2022-09-23T05:04:19;11.60;99.90
21602;DHT22;10963;50.934;4.668;2022-09-23T05:06:45;11.60;99.90
21602;DHT22;10963;50.934;4.668;2022-09-23T05:09:14;11.60;99.90
21602;DHT22;10963;50.934;4.668;2022-09-23T05:11:41;11.60;99.90
21602;DHT22;10963;50.934;4.668;2022-09-23T05:14:08;11.60;99.90
21602;DHT22;10963;50.934;4.668;2022-09-23T05:16:36;11.60;99.90
21602;DHT22;10963;50.934;4.668;2022-09-23T05:19:04;11.60;99.90
21602;DHT22;10963;50.934;4.668;2022-09-23T05:21:30;11.60;99.90
21602;DHT22;10963;50.934;4.668;2022-09-23T05:23:59;11.60;99.90
21602;DHT22;10963;50.934;4.668;2022-09-23T05:26:30;11.70;99.90
21602;DHT22;10963;50.934;4.668;2022-09-23T05:28:56;11.60;99.90
21602;DHT22;10963;50.934;4.668;2022-09-23T05:31:29;11.70;99.90
21602;DHT22;10963;50.934;4.668;2022-09-23T05:34:00;11.70;99.90
21602;DHT22;10963;50.934;4.668;2022-09-23T05:36:28;11.60;99.90
21602;DHT22;10963;50.934;4.668;2022-09-23T05:39:00;11.60;99.90
21602;DHT22;10963;50.934;4.668;2022-09-23T05:41:26;11.60;99.90
21602;DHT22;10963;50.934;4.668;2022-09-23T05:43:54;11.40;99.90
21602;DHT22;10963;50.934;4.668;2022-09-23T05:46:27;11.50;99.90
21602;DHT22;10963;50.934;4.668;2022-09-23T05:48:58;11.40;99.90
21602;DHT22;10963;50.934;4.668;2022-09-23T05:51:27;11.50;99.90
21602;DHT22;10963;50.934;4.668;2022-09-23T05:53:56;11.40;99.90
21602;DHT22;10963;50.934;4.668;2022-09-23T05:56:26;11.50;99.90
21602;DHT22;10963;50.934;4.668;2022-09-23T05:58:53;11.40;99.90
21602;DHT22;10963;50.934;4.668;2022-09-23T06:01:28;11.40;99.90
21602;DHT22;10963;50.934;4.668;2022-09-23T06:04:00;11.50;99.90
21602;DHT22;10963;50.934;4.668;2022-09-23T06:06:31;11.60;99.90
21602;DHT22;10963;50.934;4.668;2022-09-23T06:08:58;11.70;99.90
21602;DHT22;10963;50.934;4.668;2022-09-23T06:11:28;11.70;99.90
21602;DHT22;10963;50.934;4.668;2022-09-23T06:13:58;11.80;99.90
21602;DHT22;10963;50.934;4.668;2022-09-23T06:16:31;11.80;99.90
21602;DHT22;10963;50.934;4.668;2022-09-23T06:18:57;11.90;99.90
21602;DHT22;10963;50.934;4.668;2022-09-23T06:21:24;11.90;99.90
21602;DHT22;10963;50.934;4.668;2022-09-23T06:23:51;11.90;99.90
21602;DHT22;10963;50.934;4.668;2022-09-23T06:26:17;12.00;99.90
21602;DHT22;10963;50.934;4.668;2022-09-23T06:28:44;12.10;99.90
21602;DHT22;10963;50.934;4.668;2022-09-23T06:31:12;12.30;99.90
21602;DHT22;10963;50.934;4.668;2022-09-23T06:33:38;12.30;99.90
21602;DHT22;10963;50.934;4.668;2022-09-23T06:36:11;12.40;99.90
21602;DHT22;10963;50.934;4.668;2022-09-23T06:38:42;12.60;99.90
21602;DHT22;10963;50.934;4.668;2022-09-23T06:41:11;12.70;99.90
21602;DHT22;10963;50.934;4.668;2022-09-23T06:43:42;12.70;99.90
21602;DHT22;10963;50.934;4.668;2022-09-23T06:46:08;13.00;99.90
21602;DHT22;10963;50.934;4.668;2022-09-23T06:48:37;13.00;99.90
21602;DHT22;10963;50.934;4.668;2022-09-23T06:51:05;12.90;99.90
21602;DHT22;10963;50.934;4.668;2022-09-23T06:53:35;13.10;99.90
21602;DHT22;10963;50.934;4.668;2022-09-23T06:56:04;13.20;99.90
21602;DHT22;10963;50.934;4.668;2022-09-23T06:58:31;13.30;99.90
21602;DHT22;10963;50.934;4.668;2022-09-23T07:01:04;13.30;99.90
21602;DHT22;10963;50.934;4.668;2022-09-23T07:03:32;13.60;99.90
21602;DHT22;10963;50.934;4.668;2022-09-23T07:06:03;13.70;99.90
21602;DHT22;10963;50.934;4.668;2022-09-23T07:08:29;13.80;99.90
21602;DHT22;10963;50.934;4.668;2022-09-23T07:11:01;14.10;99.90
21602;DHT22;10963;50.934;4.668;2022-09-23T07:13:30;14.30;99.90
21602;DHT22;10963;50.934;4.668;2022-09-23T07:15:58;14.30;99.90
21602;DHT22;10963;50.934;4.668;2022-09-23T07:18:29;14.30;99.90
21602;DHT22;10963;50.934;4.668;2022-09-23T07:20:55;14.60;99.90
21602;DHT22;10963;50.934;4.668;2022-09-23T07:23:23;14.60;99.90
21602;DHT22;10963;50.934;4.668;2022-09-23T07:25:52;14.70;99.90
21602;DHT22;10963;50.934;4.668;2022-09-23T07:28:24;14.70;99.90
21602;DHT22;10963;50.934;4.668;2022-09-23T07:30:52;14.90;99.90
21602;DHT22;10963;50.934;4.668;2022-09-23T07:33:20;15.10;99.90
21602;DHT22;10963;50.934;4.668;2022-09-23T07:35:46;15.10;99.90
21602;DHT22;10963;50.934;4.668;2022-09-23T07:38:12;15.30;99.90
21602;DHT22;10963;50.934;4.668;2022-09-23T07:40:38;15.20;99.90
21602;DHT22;10963;50.934;4.668;2022-09-23T07:43:06;15.20;99.90
21602;DHT22;10963;50.934;4.668;2022-09-23T07:45:35;15.30;99.90
21602;DHT22;10963;50.934;4.668;2022-09-23T07:48:02;15.30;99.90
21602;DHT22;10963;50.934;4.668;2022-09-23T07:50:27;15.00;99.90
21602;DHT22;10963;50.934;4.668;2022-09-23T07:52:56;14.90;99.90
21602;DHT22;10963;50.934;4.668;2022-09-23T07:55:29;14.70;99.90
21602;DHT22;10963;50.934;4.668;2022-09-23T07:57:57;14.80;99.90
21602;DHT22;10963;50.934;4.668;2022-09-23T08:00:26;14.70;99.90
21602;DHT22;10963;50.934;4.668;2022-09-23T08:02:54;14.90;99.90
21602;DHT22;10963;50.934;4.668;2022-09-23T08:05:22;15.00;99.90
21602;DHT22;10963;50.934;4.668;2022-09-23T08:07:47;15.30;99.90
21602;DHT22;10963;50.934;4.668;2022-09-23T08:10:14;15.40;99.90
21602;DHT22;10963;50.934;4.668;2022-09-23T08:12:43;15.60;99.90
21602;DHT22;10963;50.934;4.668;2022-09-23T08:15:12;15.60;99.90
21602;DHT22;10963;50.934;4.668;2022-09-23T08:17:40;15.70;99.90
21602;DHT22;10963;50.934;4.668;2022-09-23T08:20:09;15.70;99.90
21602;DHT22;10963;50.934;4.668;2022-09-23T08:22:54;15.80;99.90
21602;DHT22;10963;50.934;4.668;2022-09-23T08:25:20;16.10;99.90
21602;DHT22;10963;50.934;4.668;2022-09-23T08:27:48;16.00;99.90
21602;DHT22;10963;50.934;4.668;2022-09-23T08:30:14;15.90;99.90
21602;DHT22;10963;50.934;4.668;2022-09-23T08:32:39;15.90;99.90
21602;DHT22;10963;50.934;4.668;2022-09-23T08:35:05;15.80;99.90
21602;DHT22;10963;50.934;4.668;2022-09-23T08:37:34;15.90;99.90
21602;DHT22;10963;50.934;4.668;2022-09-23T08:40:02;16.10;99.90
21602;DHT22;10963;50.934;4.668;2022-09-23T08:42:32;16.30;99.90
21602;DHT22;10963;50.934;4.668;2022-09-23T08:45:04;16.50;99.90
21602;DHT22;10963;50.934;4.668;2022-09-23T08:50:23;16.70;99.90
21602;DHT22;10963;50.934;4.668;2022-09-23T08:53:06;16.80;99.90
21602;DHT22;10963;50.934;4.668;2022-09-23T08:55:42;17.00;99.90
21602;DHT22;10963;50.934;4.668;2022-09-23T09:03:52;17.70;99.90
21602;DHT22;10963;50.934;4.668;2022-09-23T09:06:35;17.90;99.90
21602;DHT22;10963;50.934;4.668;2022-09-23T09:09:08;18.10;99.90
21602;DHT22;10963;50.934;4.668;2022-09-23T09:11:40;18.10;99.90
21602;DHT22;10963;50.934;4.668;2022-09-23T09:17:03;18.60;99.90
21602;DHT22;10963;50.934;4.668;2022-09-23T09:22:08;18.60;99.90
21602;DHT22;10963;50.934;4.668;2022-09-23T09:24:41;18.70;99.90
21602;DHT22;10963;50.934;4.668;2022-09-23T09:27:13;18.70;99.90
21602;DHT22;10963;50.934;4.668;2022-09-23T09:29:45;18.80;99.90
21602;DHT22;10963;50.934;4.668;2022-09-23T09:32:56;19.10;99.90
21602;DHT22;10963;50.934;4.668;2022-09-23T09:35:37;19.30;99.90
21602;DHT22;10963;50.934;4.668;2022-09-23T09:38:05;19.40;99.90
21602;DHT22;10963;50.934;4.668;2022-09-23T09:40:32;19.50;99.90
21602;DHT22;10963;50.934;4.668;2022-09-23T09:43:00;19.50;99.90
21602;DHT22;10963;50.934;4.668;2022-09-23T09:50:47;20.10;99.90
21602;DHT22;10963;50.934;4.668;2022-09-23T09:53:23;20.30;99.90
21602;DHT22;10963;50.934;4.668;2022-09-23T09:56:07;20.30;99.90
21602;DHT22;10963;50.934;4.668;2022-09-23T09:58:55;20.40;99.90
21602;DHT22;10963;50.934;4.668;2022-09-23T10:01:25;20.60;99.90
21602;DHT22;10963;50.934;4.668;2022-09-23T10:04:03;20.90;99.90
21602;DHT22;10963;50.934;4.668;2022-09-23T10:06:34;21.20;99.90
21602;DHT22;10963;50.934;4.668;2022-09-23T10:11:34;21.20;99.90
21602;DHT22;10963;50.934;4.668;2022-09-23T10:14:16;21.40;99.90
21602;DHT22;10963;50.934;4.668;2022-09-23T10:16:46;21.50;99.90
21602;DHT22;10963;50.934;4.668;2022-09-23T10:19:29;21.50;99.90
21602;DHT22;10963;50.934;4.668;2022-09-23T10:22:01;21.80;99.90
21602;DHT22;10963;50.934;4.668;2022-09-23T10:24:31;22.10;99.90
21602;DHT22;10963;50.934;4.668;2022-09-23T10:27:09;22.20;99.90
21602;DHT22;10963;50.934;4.668;2022-09-23T10:32:20;21.80;99.90
21602;DHT22;10963;50.934;4.668;2022-09-23T10:37:26;21.80;99.90
21602;DHT22;10963;50.934;4.668;2022-09-23T10:39:54;22.00;99.90
21602;DHT22;10963;50.934;4.668;2022-09-23T10:46:26;22.00;99.90
21602;DHT22;10963;50.934;4.668;2022-09-23T10:57:59;22.50;99.90
21602;DHT22;10963;50.934;4.668;2022-09-23T11:01:25;21.90;99.90
21602;DHT22;10963;50.934;4.668;2022-09-23T11:06:39;22.80;99.90
21602;DHT22;10963;50.934;4.668;2022-09-23T11:12:17;23.40;99.90
21602;DHT22;10963;50.934;4.668;2022-09-23T11:26:25;22.60;99.90
21602;DHT22;10963;50.934;4.668;2022-09-23T11:31:55;21.30;99.90
21602;DHT22;10963;50.934;4.668;2022-09-23T11:37:38;22.00;99.90
21602;DHT22;10963;50.934;4.668;2022-09-23T11:45:50;22.70;99.90
21602;DHT22;10963;50.934;4.668;2022-09-23T11:48:28;23.20;99.90
21602;DHT22;10963;50.934;4.668;2022-09-23T11:51:02;23.20;99.90
21602;DHT22;10963;50.934;4.668;2022-09-23T11:53:45;22.60;99.90
21602;DHT22;10963;50.934;4.668;2022-09-23T11:56:32;22.80;99.90
21602;DHT22;10963;50.934;4.668;2022-09-23T11:59:33;22.30;99.90
21602;DHT22;10963;50.934;4.668;2022-09-23T12:02:27;22.50;99.90
21602;DHT22;10963;50.934;4.668;2022-09-23T12:05:21;22.40;99.90
21602;DHT22;10963;50.934;4.668;2022-09-23T12:08:00;22.60;99.90
21602;DHT22;10963;50.934;4.668;2022-09-23T12:13:43;23.40;99.90
21602;DHT22;10963;50.934;4.668;2022-09-23T12:19:53;23.20;99.90
21602;DHT22;10963;50.934;4.668;2022-09-23T12:28:05;22.90;99.90
21602;DHT22;10963;50.934;4.668;2022-09-23T12:30:36;23.10;99.90
21602;DHT22;10963;50.934;4.668;2022-09-23T12:33:22;22.80;99.90
21602;DHT22;10963;50.934;4.668;2022-09-23T12:35:50;22.80;99.90
21602;DHT22;10963;50.934;4.668;2022-09-23T12:38:21;22.90;99.90
21602;DHT22;10963;50.934;4.668;2022-09-23T12:40:53;23.00;99.90
21602;DHT22;10963;50.934;4.668;2022-09-23T12:43:28;22.90;99.90
21602;DHT22;10963;50.934;4.668;2022-09-23T12:46:14;22.90;99.90
21602;DHT22;10963;50.934;4.668;2022-09-23T12:48:46;23.00;99.90
21602;DHT22;10963;50.934;4.668;2022-09-23T12:51:21;23.20;99.90
21602;DHT22;10963;50.934;4.668;2022-09-23T12:56:28;22.60;99.90
21602;DHT22;10963;50.934;4.668;2022-09-23T13:05:33;21.80;99.90
21602;DHT22;10963;50.934;4.668;2022-09-23T13:08:30;21.90;99.90
21602;DHT22;10963;50.934;4.668;2022-09-23T13:11:01;21.70;99.90
21602;DHT22;10963;50.934;4.668;2022-09-23T13:13:42;21.60;99.90
21602;DHT22;10963;50.934;4.668;2022-09-23T13:18:56;21.30;99.90
21602;DHT22;10963;50.934;4.668;2022-09-23T13:32:15;22.50;99.90
21602;DHT22;10963;50.934;4.668;2022-09-23T13:40:28;21.50;99.90
21602;DHT22;10963;50.934;4.668;2022-09-23T13:43:04;21.80;99.90
21602;DHT22;10963;50.934;4.668;2022-09-23T13:45:32;22.20;99.90
21602;DHT22;10963;50.934;4.668;2022-09-23T13:48:06;22.20;99.90
21602;DHT22;10963;50.934;4.668;2022-09-23T13:50:37;22.30;99.90
21602;DHT22;10963;50.934;4.668;2022-09-23T13:53:10;22.30;99.90
21602;DHT22;10963;50.934;4.668;2022-09-23T13:55:38;22.30;99.90
21602;DHT22;10963;50.934;4.668;2022-09-23T13:58:21;21.90;99.90
21602;DHT22;10963;50.934;4.668;2022-09-23T14:00:49;22.20;99.90
21602;DHT22;10963;50.934;4.668;2022-09-23T14:05:49;22.50;99.90
21602;DHT22;10963;50.934;4.668;2022-09-23T14:08:16;22.80;99.90
21602;DHT22;10963;50.934;4.668;2022-09-23T14:10:46;22.90;99.90
21602;DHT22;10963;50.934;4.668;2022-09-23T14:13:25;22.70;99.90
21602;DHT22;10963;50.934;4.668;2022-09-23T14:15:56;22.70;99.90
21602;DHT22;10963;50.934;4.668;2022-09-23T14:18:39;22.60;99.90
21602;DHT22;10963;50.934;4.668;2022-09-23T14:21:25;22.60;99.90
21602;DHT22;10963;50.934;4.668;2022-09-23T14:23:50;22.30;99.90
21602;DHT22;10963;50.934;4.668;2022-09-23T14:26:20;22.10;99.90
21602;DHT22;10963;50.934;4.668;2022-09-23T14:28:46;22.20;99.90
21602;DHT22;10963;50.934;4.668;2022-09-23T14:31:12;22.40;99.90
21602;DHT22;10963;50.934;4.668;2022-09-23T14:33:41;22.30;99.90
21602;DHT22;10963;50.934;4.668;2022-09-23T14:36:13;22.30;99.90
21602;DHT22;10963;50.934;4.668;2022-09-23T14:39:06;22.10;99.90
21602;DHT22;10963;50.934;4.668;2022-09-23T14:41:37;22.10;99.90
21602;DHT22;10963;50.934;4.668;2022-09-23T14:44:05;22.10;99.90
21602;DHT22;10963;50.934;4.668;2022-09-23T14:46:37;22.20;99.90
21602;DHT22;10963;50.934;4.668;2022-09-23T14:51:51;22.20;99.90
21602;DHT22;10963;50.934;4.668;2022-09-23T14:54:54;22.20;99.90
21602;DHT22;10963;50.934;4.668;2022-09-23T15:00:07;22.20;99.90
21602;DHT22;10963;50.934;4.668;2022-09-23T15:02:42;22.20;99.90
21602;DHT22;10963;50.934;4.668;2022-09-23T15:05:20;22.20;99.90
21602;DHT22;10963;50.934;4.668;2022-09-23T15:07:52;22.20;99.90
21602;DHT22;10963;50.934;4.668;2022-09-23T15:10:29;22.10;99.90
21602;DHT22;10963;50.934;4.668;2022-09-23T15:13:07;22.20;99.90
21602;DHT22;10963;50.934;4.668;2022-09-23T15:15:34;22.10;99.90
21602;DHT22;10963;50.934;4.668;2022-09-23T15:18:14;22.10;99.90
21602;DHT22;10963;50.934;4.668;2022-09-23T15:21:31;22.00;99.90
21602;DHT22;10963;50.934;4.668;2022-09-23T15:26:18;21.80;99.90
21602;DHT22;10963;50.934;4.668;2022-09-23T15:28:49;21.70;99.90
21602;DHT22;10963;50.934;4.668;2022-09-23T15:31:17;21.70;99.90
21602;DHT22;10963;50.934;4.668;2022-09-23T15:33:47;21.70;99.90
21602;DHT22;10963;50.934;4.668;2022-09-23T15:38:45;21.50;99.90
21602;DHT22;10963;50.934;4.668;2022-09-23T15:41:17;21.50;99.90
21602;DHT22;10963;50.934;4.668;2022-09-23T15:43:43;21.50;99.90
21602;DHT22;10963;50.934;4.668;2022-09-23T15:46:28;21.60;99.90
21602;DHT22;10963;50.934;4.668;2022-09-23T15:49:00;21.50;99.90
21602;DHT22;10963;50.934;4.668;2022-09-23T15:51:27;21.50;99.90
21602;DHT22;10963;50.934;4.668;2022-09-23T15:53:56;21.40;99.90
21602;DHT22;10963;50.934;4.668;2022-09-23T15:56:24;21.40;99.90
21602;DHT22;10963;50.934;4.668;2022-09-23T15:58:51;21.30;99.90
21602;DHT22;10963;50.934;4.668;2022-09-23T16:01:31;21.30;99.90
21602;DHT22;10963;50.934;4.668;2022-09-23T16:04:05;21.30;99.90
21602;DHT22;10963;50.934;4.668;2022-09-23T16:06:34;21.20;99.90
21602;DHT22;10963;50.934;4.668;2022-09-23T16:09:05;21.20;99.90
21602;DHT22;10963;50.934;4.668;2022-09-23T16:11:31;21.10;99.90
21602;DHT22;10963;50.934;4.668;2022-09-23T16:13:59;21.00;99.90
21602;DHT22;10963;50.934;4.668;2022-09-23T16:16:28;21.00;99.90
21602;DHT22;10963;50.934;4.668;2022-09-23T16:18:55;20.80;99.90
21602;DHT22;10963;50.934;4.668;2022-09-23T16:21:24;20.80;99.90
21602;DHT22;10963;50.934;4.668;2022-09-23T16:23:53;20.70;99.90
21602;DHT22;10963;50.934;4.668;2022-09-23T16:26:28;20.70;99.90
21602;DHT22;10963;50.934;4.668;2022-09-23T16:28:55;20.50;99.90
21602;DHT22;10963;50.934;4.668;2022-09-23T16:31:23;20.40;99.90
21602;DHT22;10963;50.934;4.668;2022-09-23T16:34:00;20.40;99.90
21602;DHT22;10963;50.934;4.668;2022-09-23T16:36:27;20.30;99.90
21602;DHT22;10963;50.934;4.668;2022-09-23T16:38:56;20.30;99.90
21602;DHT22;10963;50.934;4.668;2022-09-23T16:41:25;20.30;99.90
21602;DHT22;10963;50.934;4.668;2022-09-23T16:43:59;20.20;99.90
21602;DHT22;10963;50.934;4.668;2022-09-23T16:46:29;20.20;99.90
21602;DHT22;10963;50.934;4.668;2022-09-23T16:48:58;20.20;99.90
21602;DHT22;10963;50.934;4.668;2022-09-23T16:51:30;20.10;99.90
21602;DHT22;10963;50.934;4.668;2022-09-23T16:54:00;20.10;99.90
21602;DHT22;10963;50.934;4.668;2022-09-23T16:56:29;20.10;99.90
21602;DHT22;10963;50.934;4.668;2022-09-23T16:58:59;20.00;99.90
21602;DHT22;10963;50.934;4.668;2022-09-23T17:01:28;19.90;99.90
21602;DHT22;10963;50.934;4.668;2022-09-23T17:04:14;19.90;99.90
21602;DHT22;10963;50.934;4.668;2022-09-23T17:06:45;19.80;99.90
21602;DHT22;10963;50.934;4.668;2022-09-23T17:09:18;19.70;99.90
21602;DHT22;10963;50.934;4.668;2022-09-23T17:12:08;19.70;99.90
21602;DHT22;10963;50.934;4.668;2022-09-23T17:14:42;19.70;99.90
21602;DHT22;10963;50.934;4.668;2022-09-23T17:17:08;19.60;99.90
21602;DHT22;10963;50.934;4.668;2022-09-23T17:19:36;19.60;99.90
21602;DHT22;10963;50.934;4.668;2022-09-23T17:22:02;19.40;99.90
21602;DHT22;10963;50.934;4.668;2022-09-23T17:24:27;19.50;99.90
21602;DHT22;10963;50.934;4.668;2022-09-23T17:26:53;19.30;99.90
21602;DHT22;10963;50.934;4.668;2022-09-23T17:29:26;19.20;99.90
21602;DHT22;10963;50.934;4.668;2022-09-23T17:31:53;18.90;99.90
21602;DHT22;10963;50.934;4.668;2022-09-23T17:34:19;18.70;99.90
21602;DHT22;10963;50.934;4.668;2022-09-23T17:36:45;18.60;99.90
21602;DHT22;10963;50.934;4.668;2022-09-23T17:39:11;18.50;99.90
21602;DHT22;10963;50.934;4.668;2022-09-23T17:41:39;18.40;99.90
21602;DHT22;10963;50.934;4.668;2022-09-23T17:44:09;18.30;99.90
21602;DHT22;10963;50.934;4.668;2022-09-23T17:46:40;18.30;99.90
21602;DHT22;10963;50.934;4.668;2022-09-23T17:49:05;18.10;99.90
21602;DHT22;10963;50.934;4.668;2022-09-23T17:51:32;18.00;99.90
21602;DHT22;10963;50.934;4.668;2022-09-23T17:54:01;17.80;99.90
21602;DHT22;10963;50.934;4.668;2022-09-23T17:56:29;17.70;99.90
21602;DHT22;10963;50.934;4.668;2022-09-23T17:58:59;17.60;99.90
21602;DHT22;10963;50.934;4.668;2022-09-23T18:01:31;17.40;99.90
21602;DHT22;10963;50.934;4.668;2022-09-23T18:04:01;17.20;99.90
21602;DHT22;10963;50.934;4.668;2022-09-23T18:06:32;17.10;99.90
21602;DHT22;10963;50.934;4.668;2022-09-23T18:09:02;17.10;99.90
21602;DHT22;10963;50.934;4.668;2022-09-23T18:11:31;17.00;99.90
21602;DHT22;10963;50.934;4.668;2022-09-23T18:14:01;17.00;99.90
21602;DHT22;10963;50.934;4.668;2022-09-23T18:16:32;16.90;99.90
21602;DHT22;10963;50.934;4.668;2022-09-23T18:19:02;16.80;99.90
21602;DHT22;10963;50.934;4.668;2022-09-23T18:21:40;16.80;99.90
21602;DHT22;10963;50.934;4.668;2022-09-23T18:24:12;16.70;99.90
21602;DHT22;10963;50.934;4.668;2022-09-23T18:26:39;16.60;99.90
21602;DHT22;10963;50.934;4.668;2022-09-23T18:29:09;16.60;99.90
21602;DHT22;10963;50.934;4.668;2022-09-23T18:31:36;16.60;99.90
21602;DHT22;10963;50.934;4.668;2022-09-23T18:34:13;16.60;99.90
21602;DHT22;10963;50.934;4.668;2022-09-23T18:36:40;16.60;99.90
21602;DHT22;10963;50.934;4.668;2022-09-23T18:39:08;16.60;99.90
21602;DHT22;10963;50.934;4.668;2022-09-23T18:41:35;16.60;99.90
21602;DHT22;10963;50.934;4.668;2022-09-23T18:44:04;16.60;99.90
21602;DHT22;10963;50.934;4.668;2022-09-23T18:46:30;16.50;99.90
21602;DHT22;10963;50.934;4.668;2022-09-23T18:48:59;16.60;99.90